Time;durP1;ratioP1;P1;durP2;ratioP2;P2;SDS_P1;SDS_P2;PMS_P1;PMS_P2;Temp;Humidity;BMP_temperature;BMP_pressure;BME280_temperature;BME280_humidity;BME280_pressure;Samples;Min_cycle;Max_cycle;Signal;HPM_P1;HPM_P2
2022/10/16 00:01:35;;;;;;;15.68;9.88;;;;;;;13.31;71.32;98664.13;5070637;28;20058;-69
2022/10/16 00:04:01;;;;;;;14.45;9.48;;;;;;;13.34;71.38;98665.47;5070538;28;20025;-69
2022/10/16 00:06:28;;;;;;;14.57;9.93;;;;;;;13.36;71.17;98666.78;5070827;28;20039;-69
2022/10/16 00:08:54;;;;;;;15.23;10.32;;;;;;;13.39;71.32;98662.59;5070599;28;20028;-70
2022/10/16 00:11:28;;;;;;;14.38;10.13;;;;;;;13.39;71.33;98666.16;5067346;28;20704;-69
2022/10/16 00:13:58;;;;;;;18.05;10.70;;;;;;;13.37;71.68;98673.91;5064437;28;20025;-70
2022/10/16 00:16:24;;;;;;;14.23;10.15;;;;;;;13.38;71.65;98666.47;5062474;28;20052;-69
2022/10/16 00:18:50;;;;;;;18.38;11.00;;;;;;;13.36;71.49;98663.22;5050177;28;20021;-70
2022/10/16 00:21:27;;;;;;;13.80;10.25;;;;;;;13.36;71.58;98663.22;5069780;28;20025;-69
2022/10/16 00:23:55;;;;;;;15.88;10.38;;;;;;;13.37;71.63;98660.16;5069387;28;20028;-69
2022/10/16 00:26:21;;;;;;;16.65;10.73;;;;;;;13.38;71.97;98658.22;5069152;28;20033;-69
2022/10/16 00:28:48;;;;;;;18.52;12.15;;;;;;;13.38;71.77;98664.53;5077656;28;20095;-70
2022/10/16 00:31:13;;;;;;;16.08;10.73;;;;;;;13.36;71.91;98668.72;5089130;28;20020;-69
2022/10/16 00:33:40;;;;;;;16.13;10.25;;;;;;;13.35;71.72;98667.91;5079050;28;20035;-69
2022/10/16 00:36:07;;;;;;;17.02;11.98;;;;;;;13.36;71.56;98663.22;5087338;28;20461;-69
2022/10/16 00:38:34;;;;;;;21.27;13.25;;;;;;;13.35;71.81;98667.91;5088573;28;20024;-70
2022/10/16 00:41:00;;;;;;;19.73;12.60;;;;;;;13.35;71.86;98662.38;5089185;28;20025;-69
2022/10/16 00:43:36;;;;;;;16.98;11.88;;;;;;;13.35;71.30;98658.84;5078116;28;20055;-69
2022/10/16 00:46:04;;;;;;;17.15;10.55;;;;;;;13.36;72.24;98654.97;5044115;28;20021;-69
2022/10/16 00:48:30;;;;;;;13.90;10.20;;;;;;;13.36;71.73;98657.72;5071035;28;20032;-69
2022/10/16 00:50:57;;;;;;;14.60;10.35;;;;;;;13.36;72.01;98653.00;5069676;28;20419;-70
2022/10/16 00:53:25;;;;;;;16.15;10.32;;;;;;;13.37;71.76;98651.88;5064259;28;20052;-70
2022/10/16 00:55:51;;;;;;;17.60;11.10;;;;;;;13.36;71.50;98654.97;5061861;28;20021;-69
2022/10/16 00:58:16;;;;;;;16.60;11.23;;;;;;;13.36;71.81;98649.44;5065623;28;20040;-69
2022/10/16 01:00:41;;;;;;;16.30;10.65;;;;;;;13.37;71.71;98656.59;5064357;28;20028;-70
2022/10/16 01:03:33;;;;;;;20.02;12.15;;;;;;;13.34;71.73;98647.00;5070991;28;20040;-70
2022/10/16 01:06:10;;;;;;;20.55;11.10;;;;;;;13.36;71.62;98649.44;5068250;28;20024;-69
2022/10/16 01:09:34;;;;;;;15.27;10.40;;;;;;;13.34;71.49;98654.44;5054035;28;20466;-69
2022/10/16 01:12:37;;;;;;;16.80;10.70;;;;;;;13.32;71.51;98656.69;4978706;28;20042;-69
2022/10/16 01:15:17;;;;;;;17.23;11.57;;;;;;;13.31;71.52;98655.88;5066576;28;20020;-69
2022/10/16 01:17:46;;;;;;;;;;;;;;;13.30;71.40;98659.75;5065224;28;20032;-69
2022/10/16 01:20:17;;;;;;;27.52;14.70;;;;;;;13.27;71.43;98663.13;5068110;28;20010;-69
2022/10/16 01:23:07;;;;;;;24.40;13.65;;;;;;;13.24;71.66;98667.31;5064492;28;20025;-70
2022/10/16 01:25:42;;;;;;;32.92;17.27;;;;;;;13.21;71.48;98667.94;5063694;28;20449;-68
2022/10/16 01:28:11;;;;;;;24.48;15.10;;;;;;;13.19;71.51;98667.44;5066960;28;20040;-69
2022/10/16 01:30:39;;;;;;;18.23;11.88;;;;;;;13.17;71.82;98664.16;5063836;28;20045;-69
2022/10/16 01:33:20;;;;;;;21.30;12.80;;;;;;;13.16;71.67;98661.72;5046444;28;20103;-69
2022/10/16 01:35:55;;;;;;;33.13;19.58;;;;;;;13.14;72.04;98663.97;5043641;28;20107;-69
2022/10/16 01:38:36;;;;;;;24.73;14.93;;;;;;;13.10;71.64;98670.09;5064789;28;20032;-69
2022/10/16 01:41:09;;;;;;;25.05;14.25;;;;;;;13.07;71.68;98661.63;5066654;28;20029;-69
2022/10/16 01:43:40;;;;;;;26.85;15.02;;;;;;;13.05;71.93;98672.13;5063940;28;20145;-69
2022/10/16 01:46:08;;;;;;;22.98;13.52;;;;;;;13.01;71.79;98669.19;5066180;28;20020;-68
2022/10/16 01:48:35;;;;;;;19.80;12.48;;;;;;;13.01;72.40;98671.94;5066510;28;20025;-69
2022/10/16 01:51:08;;;;;;;21.27;13.27;;;;;;;13.00;72.68;98666.75;5067154;28;20047;-69
2022/10/16 01:53:34;;;;;;;28.70;16.45;;;;;;;12.96;72.34;98669.28;5061080;28;20035;-69
2022/10/16 01:56:03;;;;;;;21.02;13.52;;;;;;;12.94;72.40;98677.03;5064097;28;20394;-70
2022/10/16 01:58:34;;;;;;;24.85;14.88;;;;;;;12.92;72.64;98682.84;5067499;28;20031;-69
2022/10/16 02:01:02;;;;;;;30.77;16.67;;;;;;;12.89;72.21;98691.72;5060038;28;20033;-68
2022/10/16 02:03:28;;;;;;;21.25;12.73;;;;;;;12.88;72.41;98683.75;5071239;28;20033;-70
2022/10/16 02:05:56;;;;;;;18.58;11.43;;;;;;;12.86;72.35;98684.09;5071227;28;20027;-69
2022/10/16 02:08:25;;;;;;;20.33;13.02;;;;;;;12.86;72.69;98691.50;5070617;28;20108;-70
2022/10/16 02:10:51;;;;;;;28.70;14.30;;;;;;;12.84;72.34;98688.28;5069619;28;20013;-68
2022/10/16 02:13:23;;;;;;;21.23;13.13;;;;;;;12.83;72.54;98686.63;5067508;28;20052;-69
2022/10/16 02:15:49;;;;;;;24.20;15.30;;;;;;;12.83;72.48;98692.16;5066658;28;20035;-69
2022/10/16 02:18:15;;;;;;;18.90;12.15;;;;;;;12.84;72.38;98688.28;5067192;28;20021;-69
2022/10/16 02:20:52;;;;;;;18.58;11.75;;;;;;;12.86;73.36;98691.50;5065392;28;20020;-70
2022/10/16 02:23:46;;;;;;;23.40;13.07;;;;;;;12.87;72.94;98695.88;5064091;28;20051;-69
2022/10/16 02:26:19;;;;;;;38.35;19.40;;;;;;;12.89;72.46;98697.22;5060085;28;20036;-70
2022/10/16 02:28:49;;;;;;;26.60;15.25;;;;;;;12.91;72.82;98696.91;5057015;28;20040;-69
2022/10/16 02:31:23;;;;;;;17.33;11.20;;;;;;;12.91;72.79;98700.50;5061502;28;20016;-69
2022/10/16 02:33:52;;;;;;;16.67;11.23;;;;;;;12.91;72.62;98692.25;5060006;28;20063;-70
2022/10/16 02:36:18;;;;;;;21.52;12.32;;;;;;;12.94;72.87;98685.28;5061251;28;20112;-70
2022/10/16 02:38:44;;;;;;;19.30;11.93;;;;;;;12.93;72.28;98683.66;5061919;28;20025;-69
2022/10/16 02:41:10;;;;;;;17.17;11.15;;;;;;;12.95;72.81;98685.00;5061901;28;20033;-69
2022/10/16 02:43:35;;;;;;;19.77;11.98;;;;;;;12.97;72.54;98684.69;5065956;28;20494;-69
2022/10/16 02:46:00;;;;;;;20.70;11.48;;;;;;;13.03;72.48;98691.72;5072533;28;20025;-68
2022/10/16 02:48:26;;;;;;;17.95;11.65;;;;;;;13.04;72.77;98687.84;5071962;28;20032;-68
2022/10/16 02:50:51;;;;;;;19.38;11.80;;;;;;;13.05;72.90;98692.22;5065918;28;20023;-69
2022/10/16 02:53:17;;;;;;;18.88;12.07;;;;;;;13.07;72.78;98692.75;5067587;28;20470;-68
2022/10/16 02:55:42;;;;;;;17.58;11.27;;;;;;;13.09;72.74;98687.75;5068289;28;20031;-68
2022/10/16 02:58:07;;;;;;;20.35;12.15;;;;;;;13.11;72.80;98692.94;5069078;28;20096;-69
2022/10/16 03:00:33;;;;;;;18.85;11.40;;;;;;;13.14;72.62;98694.28;5064541;28;20025;-70
2022/10/16 03:02:58;;;;;;;19.13;11.23;;;;;;;13.17;72.57;98694.47;5066191;28;20059;-69
2022/10/16 03:05:24;;;;;;;16.63;11.23;;;;;;;13.19;72.66;98694.97;5046631;28;20052;-69
2022/10/16 03:07:49;;;;;;;21.48;12.00;;;;;;;13.21;72.59;98700.97;5065983;28;20484;-69
2022/10/16 03:10:14;;;;;;;17.40;10.52;;;;;;;13.24;72.56;98699.56;5063193;28;20083;-68
2022/10/16 03:12:40;;;;;;;22.13;11.93;;;;;;;13.25;72.41;98707.50;5063497;28;20082;-69
2022/10/16 03:15:06;;;;;;;18.15;11.55;;;;;;;13.29;72.40;98713.22;5066828;28;20031;-69
2022/10/16 03:17:32;;;;;;;17.60;10.88;;;;;;;13.29;72.44;98710.44;5064875;28;20025;-69
2022/10/16 03:19:58;;;;;;;18.95;11.50;;;;;;;13.32;72.25;98712.59;5070867;28;20107;-69
2022/10/16 03:22:23;;;;;;;34.45;16.98;;;;;;;13.35;72.46;98711.19;5071197;28;20030;-69
2022/10/16 03:24:49;;;;;;;18.40;11.63;;;;;;;13.38;72.33;98716.06;5071075;28;20028;-69
2022/10/16 03:27:14;;;;;;;16.48;10.98;;;;;;;13.39;72.53;98715.75;5071218;28;20066;-69
2022/10/16 03:29:39;;;;;;;16.13;10.20;;;;;;;13.42;72.33;98719.03;5087762;28;20497;-69
2022/10/16 03:32:05;;;;;;;15.07;10.70;;;;;;;13.43;72.19;98712.41;5091162;28;20024;-70
2022/10/16 03:34:30;;;;;;;15.20;9.68;;;;;;;13.44;72.09;98719.56;5071191;28;20057;-71
2022/10/16 03:36:56;;;;;;;14.52;9.63;;;;;;;13.46;72.07;98722.81;5070583;28;20428;-71
2022/10/16 03:39:21;;;;;;;18.90;10.38;;;;;;;13.49;72.08;98719.44;5070275;28;20024;-70
2022/10/16 03:41:47;;;;;;;18.10;10.55;;;;;;;13.48;71.97;98721.38;5070704;28;20028;-70
2022/10/16 03:44:13;;;;;;;17.85;10.48;;;;;;;13.46;71.95;98712.59;5070620;28;20108;-70
2022/10/16 03:46:38;;;;;;;14.93;10.52;;;;;;;13.47;72.08;98716.19;5070247;28;20044;-71
2022/10/16 03:49:03;;;;;;;17.83;11.02;;;;;;;13.45;71.79;98712.91;5070504;28;20478;-71
2022/10/16 03:51:29;;;;;;;18.33;11.02;;;;;;;13.45;71.90;98724.75;5070512;28;20024;-70
2022/10/16 03:53:54;;;;;;;18.73;10.75;;;;;;;13.44;71.66;98723.13;5070532;28;20028;-71
2022/10/16 03:56:20;;;;;;;14.90;9.98;;;;;;;13.45;71.95;98723.94;5070455;28;20029;-71
2022/10/16 03:58:45;;;;;;;14.07;9.40;;;;;;;13.43;71.68;98704.16;5070097;28;20179;-71
2022/10/16 04:01:10;;;;;;;13.43;9.75;;;;;;;13.44;71.74;98716.78;5070113;28;20511;-68
2022/10/16 04:03:36;;;;;;;15.30;9.60;;;;;;;13.45;71.61;98713.72;5070482;28;20030;-71
2022/10/16 04:06:01;;;;;;;15.25;9.57;;;;;;;13.47;71.85;98710.66;5070311;28;20028;-71
2022/10/16 04:08:26;;;;;;;16.55;9.68;;;;;;;13.46;71.58;98714.53;5070159;28;20032;-70
2022/10/16 04:10:52;;;;;;;18.05;11.10;;;;;;;13.47;71.49;98711.47;5070592;28;20025;-68
2022/10/16 04:13:17;;;;;;;16.15;9.93;;;;;;;13.47;71.45;98730.75;5070696;28;20047;-69
2022/10/16 04:15:44;;;;;;;30.80;16.15;;;;;;;13.43;71.37;98723.44;5070355;28;20374;-68
2022/10/16 04:18:11;;;;;;;22.98;13.32;;;;;;;13.40;71.54;98733.09;5070173;28;20016;-68
2022/10/16 04:20:36;;;;;;;21.95;11.45;;;;;;;13.39;71.28;98724.00;5070215;28;20029;-68
2022/10/16 04:23:01;;;;;;;19.15;10.57;;;;;;;13.38;71.53;98725.13;5073537;28;20082;-68
2022/10/16 04:25:27;;;;;;;18.55;11.07;;;;;;;13.36;71.36;98732.88;5073903;28;20021;-69
2022/10/16 04:27:53;;;;;;;15.93;11.23;;;;;;;13.34;71.12;98740.66;5072035;28;20021;-69
2022/10/16 04:30:19;;;;;;;18.13;11.30;;;;;;;13.33;71.19;98746.47;5094388;28;20081;-69
2022/10/16 04:32:51;;;;;;;15.70;10.35;;;;;;;13.31;71.42;98737.72;5093954;28;20020;-68
2022/10/16 04:35:17;;;;;;;15.48;10.05;;;;;;;13.31;71.17;98735.75;5093699;28;20085;-68
2022/10/16 04:37:43;;;;;;;16.50;10.18;;;;;;;13.31;70.85;98730.25;5093302;28;20020;-69
2022/10/16 04:40:08;;;;;;;17.05;10.23;;;;;;;13.33;71.33;98743.72;5093218;28;20026;-70
2022/10/16 04:42:34;;;;;;;14.85;10.45;;;;;;;13.34;71.39;98737.09;5075712;28;20354;-69
2022/10/16 04:44:59;;;;;;;18.50;11.18;;;;;;;13.32;71.27;98750.34;5094153;28;20083;-69
2022/10/16 04:47:24;;;;;;;15.95;10.30;;;;;;;13.30;71.03;98749.84;5093568;28;20488;-69
2022/10/16 04:49:50;;;;;;;16.73;11.07;;;;;;;13.26;71.12;98755.13;5093733;28;20460;-69
2022/10/16 04:52:16;;;;;;;17.75;10.50;;;;;;;13.23;70.95;98755.78;5075940;28;20023;-69
2022/10/16 04:54:41;;;;;;;16.00;11.27;;;;;;;13.20;70.95;98756.38;5093647;28;20039;-69
2022/10/16 04:57:06;;;;;;;17.52;11.05;;;;;;;13.17;71.12;98755.03;5093698;28;20024;-69
2022/10/16 04:59:32;;;;;;;16.67;10.25;;;;;;;13.16;71.05;98752.59;5087676;28;20055;-69
2022/10/16 05:01:57;;;;;;;18.08;10.02;;;;;;;13.15;71.02;98750.97;5054898;28;20051;-69
2022/10/16 05:04:23;;;;;;;16.88;9.95;;;;;;;13.15;71.21;98759.25;5071939;28;20039;-69
2022/10/16 05:06:48;;;;;;;15.45;9.98;;;;;;;13.12;71.30;98765.34;5073044;28;20024;-69
2022/10/16 05:09:14;;;;;;;16.23;9.55;;;;;;;13.10;71.07;98773.91;5073302;28;20032;-69
2022/10/16 05:11:39;;;;;;;20.95;12.05;;;;;;;13.07;71.23;98783.59;5073214;28;20035;-69
2022/10/16 05:14:05;;;;;;;20.02;11.95;;;;;;;13.05;70.76;98785.84;5054903;28;20044;-69
2022/10/16 05:16:30;;;;;;;18.15;11.45;;;;;;;13.02;71.22;98786.44;5072881;28;20532;-69
2022/10/16 05:18:56;;;;;;;19.13;12.15;;;;;;;12.98;71.19;98782.69;5072773;28;20051;-69
2022/10/16 05:21:22;;;;;;;21.83;11.63;;;;;;;12.95;71.39;98788.78;5072955;28;20024;-69
2022/10/16 05:23:47;;;;;;;15.82;10.73;;;;;;;12.95;71.27;98784.09;5072952;28;20438;-69
2022/10/16 05:26:12;;;;;;;15.90;10.52;;;;;;;12.95;71.20;98777.78;5073092;28;20028;-69
2022/10/16 05:28:38;;;;;;;16.92;10.73;;;;;;;12.97;71.36;98780.25;5080952;28;20036;-69
2022/10/16 05:31:08;;;;;;;17.52;10.73;;;;;;;12.97;71.61;98781.03;5093101;28;20440;-69
2022/10/16 05:33:34;;;;;;;14.70;10.13;;;;;;;12.95;71.64;98778.59;5092055;28;20035;-69
2022/10/16 05:36:08;;;;;;;17.13;10.77;;;;;;;12.95;71.40;98780.53;5093420;28;20027;-69
2022/10/16 05:38:35;;;;;;;19.13;10.93;;;;;;;12.95;71.56;98784.09;5092382;28;20024;-69
2022/10/16 05:41:01;;;;;;;16.60;10.60;;;;;;;12.97;71.58;98788.50;5093109;28;20024;-69
2022/10/16 05:43:30;;;;;;;18.17;10.60;;;;;;;13.00;71.65;98793.41;5092923;28;20055;-68
2022/10/16 05:45:57;;;;;;;18.75;11.18;;;;;;;13.03;71.98;98790.84;5093118;28;20470;-69
2022/10/16 05:48:23;;;;;;;16.10;10.27;;;;;;;13.06;71.76;98790.22;5092409;28;20066;-70
2022/10/16 05:50:56;;;;;;;15.75;11.10;;;;;;;13.08;71.50;98796.25;5092847;28;20024;-69
2022/10/16 05:53:25;;;;;;;17.38;10.90;;;;;;;13.10;71.28;98794.00;5092848;28;20119;-69
2022/10/16 05:55:55;;;;;;;17.17;11.50;;;;;;;13.12;71.32;98799.19;5092849;28;20028;-69
2022/10/16 05:58:20;;;;;;;;;;;;;;;13.17;71.62;98814.84;5093004;28;20020;-69
2022/10/16 06:01:00;;;;;;;18.83;12.30;;;;;;;13.17;71.84;98814.84;5092688;28;20293;-69
2022/10/16 06:03:26;;;;;;;18.45;11.48;;;;;;;13.20;71.40;98826.03;5092052;28;20040;-69
2022/10/16 06:05:51;;;;;;;17.70;11.40;;;;;;;13.23;71.99;98825.44;5087939;28;20021;-69
2022/10/16 06:08:18;;;;;;;21.65;12.80;;;;;;;13.27;71.64;98825.63;5071839;28;20078;-69
2022/10/16 06:10:44;;;;;;;25.17;14.02;;;;;;;13.30;71.86;98822.25;5072136;28;20041;-69
2022/10/16 06:13:10;;;;;;;18.95;11.68;;;;;;;13.37;71.66;98827.38;5071986;28;20032;-69
2022/10/16 06:15:35;;;;;;;20.05;11.85;;;;;;;13.43;71.89;98820.69;5071565;28;20031;-69
2022/10/16 06:18:01;;;;;;;23.73;13.20;;;;;;;13.50;71.73;98831.28;5071852;28;20020;-69
2022/10/16 06:20:26;;;;;;;20.98;13.43;;;;;;;13.56;71.64;98824.56;5071950;28;20107;-69
2022/10/16 06:22:51;;;;;;;19.02;12.30;;;;;;;13.62;71.58;98842.63;5071776;28;20581;-69
2022/10/16 06:25:17;;;;;;;25.13;12.32;;;;;;;13.67;71.67;98836.97;5072054;28;20048;-69
2022/10/16 06:27:42;;;;;;;22.02;12.65;;;;;;;13.72;71.50;98838.00;5069276;28;20032;-69
2022/10/16 06:30:08;;;;;;;24.05;12.80;;;;;;;13.78;71.48;98843.13;5090685;28;20028;-69
2022/10/16 06:32:33;;;;;;;21.08;11.95;;;;;;;13.87;71.69;98854.22;5073389;28;20028;-68
2022/10/16 06:34:59;;;;;;;22.30;12.07;;;;;;;13.94;71.55;98851.88;5091990;28;20035;-69
2022/10/16 06:37:24;;;;;;;23.50;12.45;;;;;;;14.02;71.73;98861.34;5073807;28;20111;-69
2022/10/16 06:39:52;;;;;;;19.05;11.35;;;;;;;14.11;71.67;98867.78;5091237;28;20031;-69
2022/10/16 06:42:18;;;;;;;18.17;10.95;;;;;;;14.18;71.33;98867.34;5091904;28;20492;-69
2022/10/16 06:44:43;;;;;;;18.38;11.23;;;;;;;14.25;71.16;98866.94;5090820;28;20020;-69
2022/10/16 06:47:09;;;;;;;20.63;11.13;;;;;;;14.31;71.15;98868.41;5091144;28;20459;-70
2022/10/16 06:49:35;;;;;;;21.80;11.73;;;;;;;14.37;71.54;98863.63;5091428;28;20449;-70
2022/10/16 06:52:01;;;;;;;17.52;10.65;;;;;;;14.45;71.05;98860.13;5091825;28;20024;-69
2022/10/16 06:54:27;;;;;;;19.10;10.73;;;;;;;14.51;71.32;98861.59;5073355;28;20111;-69
2022/10/16 06:56:54;;;;;;;20.30;11.57;;;;;;;14.59;70.98;98862.81;5091367;28;20112;-69
2022/10/16 06:59:20;;;;;;;16.98;10.73;;;;;;;14.65;71.12;98857.97;5072456;28;20500;-69
2022/10/16 07:01:45;;;;;;;17.95;11.20;;;;;;;14.71;71.23;98859.53;5072989;28;20020;-68
2022/10/16 07:04:10;;;;;;;18.48;11.23;;;;;;;14.77;71.21;98866.56;5091498;28;20034;-69
2022/10/16 07:06:36;;;;;;;15.95;10.48;;;;;;;14.85;71.14;98857.53;5091829;28;20032;-69
2022/10/16 07:09:05;;;;;;;16.55;10.82;;;;;;;14.93;70.78;98855.94;5091257;28;20103;-69
2022/10/16 07:11:30;;;;;;;19.02;10.75;;;;;;;15.00;70.47;98855.47;5091791;28;20089;-69
2022/10/16 07:13:56;;;;;;;19.48;10.70;;;;;;;15.05;70.50;98860.06;5091509;28;20482;-69
2022/10/16 07:16:24;;;;;;;18.98;10.80;;;;;;;15.11;70.37;98867.06;5073391;28;20089;-69
2022/10/16 07:18:51;;;;;;;17.60;10.73;;;;;;;15.16;70.38;98873.28;5090955;28;20028;-69
2022/10/16 07:21:20;;;;;;;19.98;11.70;;;;;;;15.22;70.13;98878.69;5091414;28;20021;-69
2022/10/16 07:23:50;;;;;;;19.30;11.20;;;;;;;15.26;70.43;98880.50;5090987;28;20032;-69
2022/10/16 07:26:15;;;;;;;18.85;10.85;;;;;;;15.29;69.98;98888.16;5091615;28;20281;-69
2022/10/16 07:28:43;;;;;;;20.45;11.15;;;;;;;15.30;69.99;98891.72;5079657;28;20737;-70
2022/10/16 07:31:11;;;;;;;19.02;11.80;;;;;;;15.33;69.75;98889.16;5071084;28;20024;-69
2022/10/16 07:33:38;;;;;;;21.95;11.77;;;;;;;15.38;69.52;98887.38;5070616;28;20059;-70
2022/10/16 07:36:04;;;;;;;18.25;10.95;;;;;;;15.39;69.55;98894.53;5070967;28;20028;-69
2022/10/16 07:38:29;;;;;;;19.38;11.25;;;;;;;15.42;69.51;98903.00;5070705;28;20467;-69
2022/10/16 07:41:03;;;;;;;16.33;11.32;;;;;;;15.45;69.60;98902.38;5070717;28;20031;-69
2022/10/16 07:43:29;;;;;;;17.45;10.52;;;;;;;15.52;69.47;98906.63;5070726;28;20146;-69
2022/10/16 07:45:55;;;;;;;15.73;10.82;;;;;;;15.55;69.10;98906.78;5070773;28;20149;-69
2022/10/16 07:48:22;;;;;;;13.65;9.63;;;;;;;15.58;69.56;98905.34;5070774;28;20111;-70
2022/10/16 07:50:47;;;;;;;14.82;9.32;;;;;;;15.63;68.91;98896.94;5070559;28;20024;-69
2022/10/16 07:53:13;;;;;;;15.20;10.20;;;;;;;15.67;68.88;98895.16;5070890;28;20032;-70
2022/10/16 07:55:39;;;;;;;20.15;10.80;;;;;;;15.72;68.96;98892.22;5070673;28;20028;-69
2022/10/16 07:58:05;;;;;;;17.80;10.55;;;;;;;15.77;68.91;98894.84;5078847;28;20023;-70
2022/10/16 08:00:31;;;;;;;19.55;10.32;;;;;;;15.83;68.93;98894.69;5094903;28;20492;-70
2022/10/16 08:02:59;;;;;;;14.73;9.82;;;;;;;15.86;68.56;98896.81;5086183;28;20434;-69
2022/10/16 08:05:26;;;;;;;17.20;10.40;;;;;;;15.88;68.66;98898.19;5057111;28;20021;-69
2022/10/16 08:07:51;;;;;;;17.92;9.90;;;;;;;15.92;68.51;98904.69;5075952;28;20302;-69
2022/10/16 08:10:19;;;;;;;15.52;9.93;;;;;;;15.94;68.52;98898.84;5094371;28;20020;-70
2022/10/16 08:12:44;;;;;;;13.68;9.27;;;;;;;15.99;68.58;98901.47;5094957;28;20036;-70
2022/10/16 08:15:10;;;;;;;14.10;9.50;;;;;;;16.07;68.73;98895.13;5095495;28;20024;-69
2022/10/16 08:17:35;;;;;;;14.15;9.25;;;;;;;16.16;67.90;98903.44;5096502;28;20060;-70
2022/10/16 08:20:01;;;;;;;16.33;10.13;;;;;;;16.19;67.75;98896.44;5097769;28;20028;-70
2022/10/16 08:22:27;;;;;;;15.60;9.85;;;;;;;16.24;67.96;98898.25;5077857;28;20028;-70
2022/10/16 08:24:52;;;;;;;14.38;9.55;;;;;;;16.32;68.01;98911.25;5094406;28;20024;-68
2022/10/16 08:27:17;;;;;;;14.13;8.90;;;;;;;16.38;67.95;98909.97;5094639;28;20024;-70
2022/10/16 08:29:43;;;;;;;11.02;8.02;;;;;;;16.46;67.92;98916.69;5074843;28;20478;-70
2022/10/16 08:32:08;;;;;;;15.43;8.73;;;;;;;16.52;67.61;98915.34;5074128;28;20027;-69
2022/10/16 08:34:34;;;;;;;13.00;8.00;;;;;;;16.59;67.73;98921.22;5074146;28;20438;-69
2022/10/16 08:36:59;;;;;;;12.13;8.02;;;;;;;16.65;67.52;98913.59;5056338;28;20020;-69
2022/10/16 08:39:25;;;;;;;12.98;8.75;;;;;;;16.72;67.57;98915.88;5074073;28;20063;-69
2022/10/16 08:41:56;;;;;;;13.93;8.95;;;;;;;16.78;67.33;98920.09;5073971;28;20496;-69
2022/10/16 08:44:37;;;;;;;12.15;8.43;;;;;;;16.86;67.15;98918.47;5055938;28;20096;-69
2022/10/16 08:47:34;;;;;;;13.13;8.80;;;;;;;16.92;67.22;98925.47;5056298;28;20554;-69
2022/10/16 08:50:08;;;;;;;14.75;9.20;;;;;;;17.00;66.62;98929.38;5073742;28;20548;-69
2022/10/16 08:52:35;;;;;;;12.65;8.98;;;;;;;17.04;66.81;98931.19;5055888;28;20488;-70
2022/10/16 08:55:01;;;;;;;15.18;9.20;;;;;;;17.10;66.69;98917.97;5056077;28;20031;-70
2022/10/16 08:57:27;;;;;;;12.82;8.18;;;;;;;17.18;66.54;98924.63;5073812;28;20063;-69
2022/10/16 08:59:59;;;;;;;12.07;8.32;;;;;;;17.22;66.10;98929.22;5074089;28;20051;-69
2022/10/16 09:02:40;;;;;;;18.67;9.18;;;;;;;17.31;66.16;98926.41;5074029;28;20457;-69
2022/10/16 09:05:29;;;;;;;13.60;9.30;;;;;;;17.37;66.11;98924.28;5073801;28;20470;-69
2022/10/16 09:08:04;;;;;;;15.70;9.07;;;;;;;17.43;65.65;98925.72;5072755;28;20494;-69
2022/10/16 09:10:38;;;;;;;13.80;9.55;;;;;;;17.49;65.42;98929.94;5073225;28;20033;-69
2022/10/16 09:13:24;;;;;;;18.10;10.05;;;;;;;17.55;65.31;98928.63;5073600;28;20390;-69
2022/10/16 09:16:04;;;;;;;18.25;10.55;;;;;;;17.65;65.64;98923.88;5058014;28;20043;-68
2022/10/16 09:18:48;;;;;;;14.77;10.63;;;;;;;17.75;65.55;98928.22;5073146;28;20028;-69
2022/10/16 09:21:32;;;;;;;18.95;11.45;;;;;;;17.84;65.17;98926.25;5073505;28;20502;-70
2022/10/16 09:24:11;;;;;;;14.48;10.40;;;;;;;17.92;64.77;98930.09;5073412;28;20016;-69
2022/10/16 09:26:36;;;;;;;20.05;12.45;;;;;;;18.00;63.42;98943.16;5073728;28;20033;-69
2022/10/16 09:29:03;;;;;;;17.58;11.02;;;;;;;18.06;64.25;98944.59;5085193;28;20477;-69
2022/10/16 09:31:28;;;;;;;14.48;9.35;;;;;;;18.14;63.67;98942.91;5093540;28;20035;-70
2022/10/16 09:33:58;;;;;;;14.50;10.00;;;;;;;18.23;63.90;98949.25;5093115;28;20032;-70
2022/10/16 09:36:26;;;;;;;14.57;9.23;;;;;;;18.32;63.71;98949.19;5093508;28;20474;-69
2022/10/16 09:39:04;;;;;;;13.13;9.07;;;;;;;18.42;64.01;98953.53;5092891;28;20794;-69
2022/10/16 09:41:29;;;;;;;12.95;8.50;;;;;;;18.52;63.85;98950.34;5093198;28;20607;-69
2022/10/16 09:43:58;;;;;;;13.27;8.77;;;;;;;18.62;63.88;98956.66;5092979;28;20107;-69
2022/10/16 09:46:30;;;;;;;14.18;8.82;;;;;;;18.68;63.45;98955.31;5093424;28;20020;-69
2022/10/16 09:48:58;;;;;;;14.18;9.07;;;;;;;18.73;62.77;98957.91;5092884;28;20478;-69
2022/10/16 09:51:26;;;;;;;14.43;8.82;;;;;;;18.76;62.16;98954.41;5093008;28;20058;-69
2022/10/16 09:54:16;;;;;;;12.35;8.43;;;;;;;18.79;62.34;98955.72;5092885;28;20031;-69
2022/10/16 09:56:45;;;;;;;15.32;9.13;;;;;;;18.79;61.28;98961.28;5081332;28;20514;-69
2022/10/16 09:59:19;;;;;;;12.32;8.95;;;;;;;18.75;61.17;98953.63;5092563;28;20027;-70
2022/10/16 10:01:47;;;;;;;12.88;8.43;;;;;;;18.75;60.66;98947.22;5092863;28;20019;-69
2022/10/16 10:04:13;;;;;;;16.45;9.40;;;;;;;18.73;60.92;98950.38;5092892;28;20031;-69
2022/10/16 10:06:44;;;;;;;14.38;8.35;;;;;;;18.71;61.28;98954.66;5092807;28;20024;-69
2022/10/16 10:09:19;;;;;;;14.25;8.80;;;;;;;18.72;61.37;98968.19;5074606;28;20390;-69
2022/10/16 10:12:02;;;;;;;14.93;9.27;;;;;;;18.72;60.93;98956.28;5092490;28;20084;-69
2022/10/16 10:14:36;;;;;;;14.65;8.45;;;;;;;18.70;61.09;98962.16;5092324;28;20024;-69
2022/10/16 10:17:10;;;;;;;11.63;8.18;;;;;;;18.72;61.55;98959.06;5092578;28;20020;-69
2022/10/16 10:19:52;;;;;;;12.35;8.65;;;;;;;18.71;60.94;98954.66;5091866;28;20435;-69
2022/10/16 10:22:38;;;;;;;16.20;10.75;;;;;;;18.69;61.47;98960.53;5091986;28;20566;-69
2022/10/16 10:25:03;;;;;;;14.18;8.60;;;;;;;18.69;60.57;98968.88;5092169;28;20972;-69
2022/10/16 10:27:49;;;;;;;13.07;8.75;;;;;;;18.62;60.06;98963.03;5091706;28;20465;-70
2022/10/16 10:30:36;;;;;;;12.75;7.53;;;;;;;18.56;60.80;98965.19;5071992;28;20044;-69
2022/10/16 10:33:13;;;;;;;12.48;8.40;;;;;;;18.53;60.00;98974.22;5071895;28;20029;-68
2022/10/16 10:36:23;;;;;;;10.95;7.78;;;;;;;18.48;60.33;98981.94;5074253;28;20106;-68
2022/10/16 10:38:58;;;;;;;11.95;7.47;;;;;;;18.39;59.97;98980.00;5065714;28;20393;-68
2022/10/16 10:41:23;;;;;;;11.00;7.50;;;;;;;18.40;60.55;98969.72;5050804;28;20056;-69
2022/10/16 10:44:15;;;;;;;11.95;7.43;;;;;;;18.39;60.55;98977.25;5071247;28;20036;-69
2022/10/16 10:47:13;;;;;;;13.38;7.28;;;;;;;18.42;60.54;98965.47;5071550;28;20032;-69
2022/10/16 10:49:41;;;;;;;9.98;6.95;;;;;;;18.45;60.39;98959.25;5032931;28;20036;-70
2022/10/16 10:52:34;;;;;;;10.35;6.68;;;;;;;18.45;60.43;98956.47;5071154;28;20040;-70
2022/10/16 10:55:13;;;;;;;11.38;7.22;;;;;;;18.45;60.28;98959.25;5069034;28;20031;-69
2022/10/16 10:58:00;;;;;;;10.07;6.45;;;;;;;18.43;60.24;98946.81;5070894;28;20022;-69
2022/10/16 11:00:58;;;;;;;10.05;6.82;;;;;;;18.45;60.05;98947.31;5052321;28;20486;-69
2022/10/16 11:03:23;;;;;;;10.15;7.05;;;;;;;18.49;60.27;98958.56;4980253;28;20123;-69
2022/10/16 11:05:58;;;;;;;12.07;9.00;;;;;;;18.51;60.26;98950.72;5067709;28;20095;-69
2022/10/16 11:08:34;;;;;;;12.85;7.50;;;;;;;18.53;60.05;98948.41;5044613;28;20078;-68
2022/10/16 11:11:04;;;;;;;12.50;7.15;;;;;;;18.54;60.27;98956.38;5070864;28;20020;-69
2022/10/16 11:13:56;;;;;;;12.75;7.47;;;;;;;18.54;59.57;98950.03;5070358;28;20107;-69
2022/10/16 11:16:27;;;;;;;10.82;7.20;;;;;;;18.53;59.94;98951.19;5070766;28;20039;-70
2022/10/16 11:19:13;;;;;;;10.27;6.82;;;;;;;18.56;59.81;98942.16;5070304;28;20028;-70
2022/10/16 11:21:51;;;;;;;9.60;6.60;;;;;;;18.57;59.63;98946.56;5029799;28;20043;-69
2022/10/16 11:24:35;;;;;;;10.52;6.88;;;;;;;18.59;60.17;98952.59;5070914;28;20033;-69
2022/10/16 11:27:07;;;;;;;10.77;7.00;;;;;;;18.62;59.81;98948.34;5068849;28;20020;-69
2022/10/16 11:29:40;;;;;;;13.30;8.50;;;;;;;18.65;60.15;98956.00;5086724;28;20113;-69
2022/10/16 11:32:19;;;;;;;11.27;7.80;;;;;;;18.67;60.49;98951.72;5090490;28;20458;-69